Time;durP1;ratioP1;P1;durP2;ratioP2;P2;SDS_P1;SDS_P2;PMS_P1;PMS_P2;Temp;Humidity;BMP_temperature;BMP_pressure;BME280_temperature;BME280_humidity;BME280_pressure;Samples;Min_cycle;Max_cycle;Signal;HPM_P1;HPM_P2
2022/05/07 00:00:52;;;;;;;8.27;7.18;;;17.90;94.80;;;;;;5037412;28;20307;-38
2022/05/07 00:03:22;;;;;;;9.77;7.30;;;17.90;94.80;;;;;;5042357;28;20208;-39
2022/05/07 00:05:49;;;;;;;8.52;6.75;;;17.80;94.80;;;;;;5047770;28;20846;-39
2022/05/07 00:08:16;;;;;;;9.00;7.28;;;17.80;94.80;;;;;;5036950;28;20225;-35
2022/05/07 00:10:44;;;;;;;9.73;7.25;;;17.80;94.80;;;;;;5029621;28;20212;-35
2022/05/07 00:13:11;;;;;;;9.02;7.07;;;17.80;94.80;;;;;;5031900;28;20189;-36
2022/05/07 00:15:39;;;;;;;10.02;7.55;;;17.80;94.80;;;;;;5036319;28;20207;-36
2022/05/07 00:18:10;;;;;;;11.55;7.90;;;17.70;94.80;;;;;;5032435;28;20298;-35
2022/05/07 00:20:38;;;;;;;8.48;7.35;;;17.70;94.80;;;;;;5037793;28;20690;-35
2022/05/07 00:23:08;;;;;;;9.40;7.55;;;17.70;94.80;;;;;;5037912;28;20209;-35
2022/05/07 00:25:35;;;;;;;11.55;7.65;;;17.70;94.80;;;;;;5030632;28;20292;-35
2022/05/07 00:28:02;;;;;;;8.77;7.20;;;17.70;94.90;;;;;;5045668;28;20749;-38
2022/05/07 00:30:29;;;;;;;8.75;7.30;;;17.60;94.80;;;;;;5029401;28;20224;-39
2022/05/07 00:32:57;;;;;;;8.68;7.15;;;17.60;94.80;;;;;;5048068;28;20278;-40
2022/05/07 00:35:24;;;;;;;10.40;7.30;;;17.60;94.80;;;;;;5030110;28;20201;-39
2022/05/07 00:37:53;;;;;;;10.18;7.45;;;17.50;94.80;;;;;;5043208;28;20701;-41
2022/05/07 00:40:20;;;;;;;11.30;6.65;;;17.50;94.80;;;;;;5046568;28;20658;-38
2022/05/07 00:42:47;;;;;;;10.18;7.78;;;17.50;94.90;;;;;;5051370;28;20235;-38
2022/05/07 00:45:15;;;;;;;10.30;7.30;;;17.50;94.90;;;;;;5048373;28;20204;-39
2022/05/07 00:47:43;;;;;;;9.48;7.72;;;17.50;94.90;;;;;;5050721;28;20255;-38
2022/05/07 00:52:56;;;;;;;9.10;7.57;;;17.40;94.80;;;;;;5039009;28;20299;-38
2022/05/07 00:55:25;;;;;;;10.15;8.07;;;17.30;94.80;;;;;;5030698;28;20699;-39
2022/05/07 00:57:54;;;;;;;11.18;7.80;;;17.30;94.80;;;;;;5027233;28;20196;-39
2022/05/07 01:00:22;;;;;;;10.45;7.93;;;17.30;94.90;;;;;;5032301;28;20201;-38
2022/05/07 01:02:52;;;;;;;10.10;7.68;;;17.20;94.80;;;;;;5032554;28;20223;-38
2022/05/07 01:05:20;;;;;;;8.88;7.40;;;17.20;94.80;;;;;;5041167;28;20200;-39
2022/05/07 01:07:47;;;;;;;9.10;7.35;;;17.20;94.80;;;;;;5045857;28;20228;-38
2022/05/07 01:10:14;;;;;;;9.23;7.70;;;17.10;94.80;;;;;;5044994;28;20196;-39
2022/05/07 01:12:42;;;;;;;9.90;7.97;;;17.10;94.90;;;;;;5049529;28;20273;-35
2022/05/07 01:15:12;;;;;;;9.43;7.57;;;17.10;94.90;;;;;;5049013;28;20254;-35
2022/05/07 01:17:39;;;;;;;10.15;8.02;;;17.10;95.00;;;;;;5047867;28;20597;-35
2022/05/07 01:20:09;;;;;;;8.60;7.05;;;17.10;95.00;;;;;;5034181;28;20221;-34
2022/05/07 01:22:37;;;;;;;11.32;8.23;;;17.00;95.00;;;;;;5047700;28;20803;-35
2022/05/07 01:25:05;;;;;;;10.48;8.73;;;17.00;95.00;;;;;;5046651;28;20244;-35
2022/05/07 01:27:34;;;;;;;10.07;7.65;;;17.00;95.10;;;;;;5034683;28;20216;-35
2022/05/07 01:30:02;;;;;;;10.80;8.10;;;16.90;95.10;;;;;;5047164;28;20212;-35
2022/05/07 01:32:32;;;;;;;10.32;8.30;;;16.90;95.10;;;;;;5048688;28;20197;-36
2022/05/07 01:35:02;;;;;;;12.10;8.40;;;16.90;95.10;;;;;;5048062;28;20295;-34
2022/05/07 01:37:29;;;;;;;9.68;8.13;;;16.80;95.00;;;;;;5033453;28;20326;-36
2022/05/07 01:39:57;;;;;;;9.48;8.00;;;16.80;95.00;;;;;;5033727;28;20589;-35
2022/05/07 01:42:25;;;;;;;10.57;8.30;;;16.80;95.00;;;;;;5030178;28;20208;-35
2022/05/07 01:44:52;;;;;;;9.55;8.55;;;16.80;95.00;;;;;;5038768;28;20315;-39
2022/05/07 01:50:06;;;;;;;10.63;7.97;;;16.70;95.00;;;;;;5048713;28;20270;-37
2022/05/07 01:52:33;;;;;;;10.18;7.88;;;16.70;95.50;;;;;;5049793;28;20218;-37
2022/05/07 01:55:06;;;;;;;10.15;8.00;;;16.70;95.20;;;;;;5048363;28;20290;-36
2022/05/07 01:57:33;;;;;;;10.00;8.02;;;16.70;95.20;;;;;;5045700;28;20212;-37
2022/05/07 02:00:00;;;;;;;9.70;7.85;;;16.70;95.20;;;;;;5034436;28;20891;-38
2022/05/07 02:02:28;;;;;;;9.55;8.02;;;16.70;95.20;;;;;;5038707;28;20258;-37
2022/05/07 02:04:56;;;;;;;8.93;8.02;;;16.70;95.20;;;;;;5048745;28;20231;-36
2022/05/07 02:07:23;;;;;;;9.80;8.57;;;16.70;95.30;;;;;;5032165;28;20323;-37
2022/05/07 02:09:50;;;;;;;10.02;8.25;;;16.70;95.40;;;;;;5038161;28;20200;-37
2022/05/07 02:12:17;;;;;;;11.30;8.93;;;16.60;95.30;;;;;;5032494;28;20232;-36
2022/05/07 02:14:45;;;;;;;10.52;8.27;;;16.60;95.30;;;;;;5039769;28;20273;-37
2022/05/07 02:17:12;;;;;;;11.73;9.13;;;16.60;95.40;;;;;;5029365;28;20227;-38
2022/05/07 02:19:39;;;;;;;10.40;8.82;;;16.60;95.30;;;;;;5028971;28;20217;-37
2022/05/07 02:22:07;;;;;;;9.65;8.45;;;16.60;95.30;;;;;;5033931;28;20215;-37
2022/05/07 02:24:34;;;;;;;10.38;8.45;;;16.60;95.40;;;;;;5048563;28;20251;-37
2022/05/07 02:27:01;;;;;;;10.48;8.88;;;16.60;95.30;;;;;;5047938;28;20212;-34
2022/05/07 02:29:28;;;;;;;9.45;8.38;;;16.60;95.30;;;;;;5045742;28;20282;-34
2022/05/07 02:32:05;;;;;;;11.73;9.00;;;16.60;95.30;;;;;;5040791;28;20208;-35
2022/05/07 02:34:34;;;;;;;11.57;9.65;;;16.60;95.30;;;;;;5047899;28;20196;-37
2022/05/07 02:37:02;;;;;;;10.60;9.50;;;16.50;95.30;;;;;;5035228;28;20358;-37
2022/05/07 02:39:30;;;;;;;10.73;9.00;;;16.50;95.30;;;;;;5037210;28;20204;-37
2022/05/07 02:44:43;;;;;;;9.85;8.70;;;16.50;95.30;;;;;;5029064;28;20695;-36
2022/05/07 02:47:11;;;;;;;11.73;9.50;;;16.50;95.30;;;;;;5045785;28;20228;-37
2022/05/07 02:49:38;;;;;;;11.50;9.75;;;16.50;95.40;;;;;;5038283;28;20199;-35
2022/05/07 02:52:07;;;;;;;12.18;10.25;;;16.50;95.40;;;;;;5027051;28;20217;-35
2022/05/07 02:54:34;;;;;;;11.70;9.75;;;16.50;95.50;;;;;;5029297;28;20211;-35
2022/05/07 02:57:02;;;;;;;10.60;9.45;;;16.50;95.50;;;;;;5028969;28;20296;-35
2022/05/07 02:59:29;;;;;;;10.55;9.02;;;16.40;95.50;;;;;;5028397;28;20220;-36
2022/05/07 03:01:57;;;;;;;11.63;8.80;;;16.40;95.50;;;;;;5044076;28;20210;-35
2022/05/07 03:04:26;;;;;;;13.10;9.00;;;16.40;95.60;;;;;;5027321;28;20221;-34
2022/05/07 03:06:54;;;;;;;10.35;8.98;;;16.40;95.60;;;;;;5028717;28;20205;-35
2022/05/07 03:09:23;;;;;;;11.23;8.88;;;16.40;95.50;;;;;;5029757;28;20297;-35
2022/05/07 03:11:51;;;;;;;10.07;8.98;;;16.40;95.50;;;;;;5034334;28;20686;-36
2022/05/07 03:14:18;;;;;;;11.68;9.68;;;16.40;95.50;;;;;;5031939;28;20209;-38
2022/05/07 03:16:47;;;;;;;10.77;9.10;;;16.40;95.60;;;;;;5032751;28;20263;-38
2022/05/07 03:19:15;;;;;;;11.27;9.25;;;16.40;95.60;;;;;;5030883;28;20212;-38
2022/05/07 03:21:46;;;;;;;10.85;9.43;;;16.40;95.60;;;;;;5031589;28;20197;-40
2022/05/07 03:24:14;;;;;;;11.90;9.40;;;16.40;95.60;;;;;;5045799;28;20303;-41
2022/05/07 03:26:41;;;;;;;10.75;9.50;;;16.40;95.60;;;;;;5049592;28;20283;-40
2022/05/07 03:29:08;;;;;;;11.43;9.48;;;16.40;95.70;;;;;;5040360;28;20236;-39
2022/05/07 03:31:38;;;;;;;11.20;9.43;;;16.40;95.70;;;;;;5031430;28;20193;-39
2022/05/07 03:34:07;;;;;;;15.40;9.45;;;16.40;95.80;;;;;;5045299;28;20208;-39
2022/05/07 03:36:37;;;;;;;10.10;9.00;;;16.40;95.70;;;;;;5051980;28;20252;-39
2022/05/07 03:39:04;;;;;;;11.50;9.25;;;16.40;95.80;;;;;;5041116;28;20619;-39
2022/05/07 03:41:31;;;;;;;13.15;9.73;;;16.40;95.80;;;;;;5047468;28;20310;-39
2022/05/07 03:43:58;;;;;;;11.15;9.85;;;16.40;95.80;;;;;;5041210;28;20218;-39
2022/05/07 03:46:26;;;;;;;11.27;9.93;;;16.40;95.80;;;;;;5031848;28;20231;-39
2022/05/07 03:48:53;;;;;;;11.20;10.00;;;16.40;95.80;;;;;;5033264;28;20254;-39
2022/05/07 03:51:20;;;;;;;11.80;9.82;;;16.40;95.90;;;;;;5042644;28;20209;-40
2022/05/07 03:53:48;;;;;;;11.77;9.82;;;16.30;95.90;;;;;;5040679;28;20204;-38
2022/05/07 03:56:15;;;;;;;10.50;9.32;;;16.30;96.00;;;;;;5051178;28;20215;-39
2022/05/07 03:58:45;;;;;;;10.57;8.95;;;16.30;96.00;;;;;;5034698;28;20844;-39
2022/05/07 04:01:15;;;;;;;11.60;8.75;;;16.30;96.10;;;;;;5031422;28;20651;-39
2022/05/07 04:03:43;;;;;;;11.57;10.00;;;16.30;96.10;;;;;;5030724;28;20205;-38
2022/05/07 04:06:10;;;;;;;10.75;9.65;;;16.30;96.20;;;;;;5031805;28;20205;-39
2022/05/07 04:08:37;;;;;;;13.45;9.93;;;16.30;96.30;;;;;;5033442;28;20235;-38
2022/05/07 04:11:05;;;;;;;12.32;9.45;;;16.40;96.30;;;;;;5030730;28;20320;-38
2022/05/07 04:13:32;;;;;;;11.30;9.32;;;16.40;96.40;;;;;;5033164;28;20299;-38
2022/05/07 04:15:59;;;;;;;11.20;10.00;;;16.30;96.50;;;;;;5032031;28;20220;-38
2022/05/07 04:18:27;;;;;;;11.98;9.73;;;16.30;96.80;;;;;;5038938;28;20638;-37
2022/05/07 04:20:54;;;;;;;12.30;10.57;;;16.30;96.60;;;;;;5042283;28;20660;-42
2022/05/07 04:23:21;;;;;;;14.15;10.48;;;16.30;96.60;;;;;;5034905;28;20215;-37
2022/05/07 04:25:48;;;;;;;11.07;9.50;;;16.30;96.70;;;;;;5039610;28;20292;-37
2022/05/07 04:28:16;;;;;;;10.82;9.52;;;16.30;96.80;;;;;;5041180;28;20750;-36
2022/05/07 04:30:43;;;;;;;10.85;9.35;;;16.30;96.80;;;;;;5050287;28;20199;-36
2022/05/07 04:33:10;;;;;;;10.38;9.27;;;16.30;96.90;;;;;;5031172;28;20217;-37
2022/05/07 04:35:38;;;;;;;12.27;9.50;;;16.30;96.90;;;;;;5039517;28;20365;-37
2022/05/07 04:38:05;;;;;;;11.40;10.18;;;16.30;97.00;;;;;;5049114;28;20223;-38
2022/05/07 04:40:32;;;;;;;12.15;9.23;;;16.30;97.10;;;;;;5042670;28;20220;-37
2022/05/07 04:42:59;;;;;;;12.48;9.02;;;16.30;97.10;;;;;;5038393;28;20217;-37
2022/05/07 04:45:28;;;;;;;13.50;9.30;;;16.30;97.10;;;;;;5031035;28;20758;-36
2022/05/07 04:47:59;;;;;;;13.55;9.45;;;16.30;97.10;;;;;;5033381;28;20714;-42
2022/05/07 04:50:26;;;;;;;12.82;8.93;;;16.30;97.20;;;;;;5054407;28;20574;-38
2022/05/07 04:52:53;;;;;;;10.07;8.90;;;16.30;97.20;;;;;;5043768;28;20695;-39
2022/05/07 04:55:20;;;;;;;10.70;8.75;;;16.30;97.20;;;;;;5034834;28;20229;-34
2022/05/07 04:57:48;;;;;;;12.93;9.40;;;16.30;97.20;;;;;;5035715;28;20239;-36
2022/05/07 05:00:15;;;;;;;11.30;9.38;;;16.30;97.30;;;;;;5037640;28;20616;-36
2022/05/07 05:02:43;;;;;;;12.48;9.57;;;16.30;97.30;;;;;;5032673;28;20201;-36
2022/05/07 05:05:13;;;;;;;12.93;9.15;;;16.30;97.30;;;;;;5032453;28;20220;-35
2022/05/07 05:07:41;;;;;;;10.77;9.30;;;16.30;97.30;;;;;;5033968;28;20243;-35
2022/05/07 05:10:11;;;;;;;11.27;8.98;;;16.30;97.30;;;;;;5034102;28;20215;-36
2022/05/07 05:12:38;;;;;;;11.05;9.25;;;16.30;97.30;;;;;;5040999;28;20232;-36
2022/05/07 05:15:09;;;;;;;10.23;8.93;;;16.30;97.30;;;;;;5046453;28;20671;-35
2022/05/07 05:17:37;;;;;;;9.60;8.15;;;16.30;97.50;;;;;;5046975;28;20382;-35
2022/05/07 05:20:05;;;;;;;12.85;8.93;;;16.30;97.40;;;;;;5043731;28;20220;-35
2022/05/07 05:22:32;;;;;;;13.77;8.80;;;16.30;97.40;;;;;;5034742;28;20538;-36
2022/05/07 05:25:03;;;;;;;11.25;8.93;;;16.30;97.50;;;;;;5047908;28;20196;-38
2022/05/07 05:27:30;;;;;;;12.18;9.13;;;16.30;97.50;;;;;;5032909;28;20225;-39
2022/05/07 05:29:59;;;;;;;12.23;9.13;;;16.30;97.60;;;;;;5038107;28;20201;-39
2022/05/07 05:32:30;;;;;;;13.45;8.77;;;16.30;97.70;;;;;;5027552;28;20212;-38
2022/05/07 05:34:57;;;;;;;13.82;9.07;;;16.30;97.60;;;;;;5037789;28;20995;-38
2022/05/07 05:37:24;;;;;;;11.80;8.80;;;16.30;97.60;;;;;;5035537;28;20200;-39
2022/05/07 05:39:54;;;;;;;15.18;9.25;;;16.40;97.70;;;;;;5035343;28;20205;-38
2022/05/07 05:42:24;;;;;;;12.90;9.50;;;16.40;97.60;;;;;;5036443;28;20609;-39
2022/05/07 05:44:54;;;;;;;18.98;11.57;;;16.40;97.70;;;;;;5029280;28;20220;-40
2022/05/07 05:47:23;;;;;;;15.57;10.70;;;16.40;97.80;;;;;;5029564;28;20742;-40
2022/05/07 05:49:52;;;;;;;13.85;10.52;;;16.40;97.70;;;;;;5036399;28;20201;-39
2022/05/07 05:52:21;;;;;;;14.13;10.63;;;16.40;97.80;;;;;;5047435;28;20305;-39
2022/05/07 05:54:48;;;;;;;14.60;10.80;;;16.40;97.80;;;;;;5048738;28;20770;-39
2022/05/07 05:57:15;;;;;;;13.02;10.13;;;16.50;97.80;;;;;;5048165;28;20207;-39
2022/05/07 05:59:45;;;;;;;12.60;9.45;;;16.50;97.80;;;;;;5045707;28;20290;-39
2022/05/07 06:02:12;;;;;;;16.73;10.40;;;16.50;97.90;;;;;;5036743;28;20263;-39
2022/05/07 06:04:39;;;;;;;13.35;10.13;;;16.50;97.90;;;;;;5045084;28;20326;-39
2022/05/07 06:07:06;;;;;;;15.45;9.93;;;16.50;97.90;;;;;;5042861;28;20607;-39
2022/05/07 06:09:36;;;;;;;18.27;11.45;;;16.50;97.90;;;;;;5027777;28;20326;-39
2022/05/07 06:12:03;;;;;;;12.68;10.13;;;16.50;98.00;;;;;;5036885;28;20242;-39
2022/05/07 06:14:31;;;;;;;14.75;9.57;;;16.60;98.10;;;;;;5032154;28;20282;-39
2022/05/07 06:16:58;;;;;;;12.60;9.13;;;16.60;98.20;;;;;;5029345;28;20581;-39
2022/05/07 06:19:26;;;;;;;16.35;10.00;;;16.70;98.20;;;;;;5025649;28;20225;-39
2022/05/07 06:21:56;;;;;;;16.23;10.82;;;16.70;98.20;;;;;;5027327;28;20575;-39
2022/05/07 06:29:56;;;;;;;13.27;10.00;;;16.80;98.20;;;;;;5039577;28;20216;-39
2022/05/07 06:32:37;;;;;;;14.90;10.20;;;16.90;98.30;;;;;;5037515;28;20200;-39
2022/05/07 06:35:08;;;;;;;17.13;11.73;;;16.90;98.40;;;;;;5037406;28;20232;-35
2022/05/07 06:37:38;;;;;;;15.20;11.45;;;17.00;98.50;;;;;;5045020;28;20569;-35
2022/05/07 06:40:07;;;;;;;15.95;12.02;;;17.10;98.60;;;;;;5041682;28;20196;-36
2022/05/07 06:42:37;;;;;;;18.23;11.80;;;17.10;98.70;;;;;;5030262;28;20659;-35
2022/05/07 06:45:05;;;;;;;19.65;12.68;;;17.20;98.80;;;;;;5044599;28;20294;-36
2022/05/07 06:47:33;;;;;;;16.80;12.85;;;17.30;98.70;;;;;;5046455;28;20274;-36
2022/05/07 06:50:01;;;;;;;21.02;13.80;;;17.40;98.80;;;;;;5035577;28;20648;-35
2022/05/07 06:52:30;;;;;;;24.10;14.18;;;17.40;98.80;;;;;;5027356;28;20197;-36
2022/05/07 06:54:57;;;;;;;26.73;15.90;;;17.50;98.80;;;;;;5025777;28;20700;-35
2022/05/07 06:57:25;;;;;;;20.20;14.15;;;17.50;98.90;;;;;;5027394;28;20193;-35
2022/05/07 06:59:52;;;;;;;20.90;13.98;;;17.60;98.80;;;;;;5043659;28;20709;-35
2022/05/07 07:02:20;;;;;;;23.95;14.60;;;17.70;98.90;;;;;;5044670;28;20208;-35
2022/05/07 07:04:47;;;;;;;23.73;14.38;;;17.70;99.00;;;;;;5036462;28;20221;-38
2022/05/07 07:07:15;;;;;;;17.40;12.18;;;17.80;99.10;;;;;;5026305;28;20205;-36
2022/05/07 07:09:42;;;;;;;17.88;12.73;;;17.80;99.10;;;;;;5026242;28;20231;-37
2022/05/07 07:12:10;;;;;;;17.92;12.23;;;17.90;99.20;;;;;;5027866;28;20243;-37
2022/05/07 07:14:39;;;;;;;16.33;11.90;;;17.90;99.20;;;;;;5036998;28;20277;-37
2022/05/07 07:17:06;;;;;;;14.23;10.98;;;18.00;99.30;;;;;;5025133;28;20205;-37
2022/05/07 07:19:34;;;;;;;20.00;13.85;;;18.10;99.30;;;;;;5044202;28;20662;-37
2022/05/07 07:22:02;;;;;;;22.52;14.68;;;18.10;99.40;;;;;;5031808;28;20798;-37
2022/05/07 07:24:29;;;;;;;20.20;15.45;;;18.20;99.40;;;;;;5029025;28;20635;-36
2022/05/07 07:26:56;;;;;;;22.02;15.45;;;18.30;99.40;;;;;;5040857;28;20201;-37
2022/05/07 07:29:23;;;;;;;22.35;15.95;;;18.30;99.50;;;;;;5025722;28;20236;-36
2022/05/07 07:31:51;;;;;;;23.88;16.48;;;18.40;99.50;;;;;;5034140;28;20200;-36
2022/05/07 07:34:21;;;;;;;22.25;16.02;;;18.40;99.50;;;;;;5042761;28;20197;-34
2022/05/07 07:36:52;;;;;;;23.00;16.05;;;18.50;99.50;;;;;;5026004;28;20220;-35
2022/05/07 07:39:20;;;;;;;25.05;16.70;;;18.50;99.50;;;;;;5036748;28;20625;-37
2022/05/07 07:41:47;;;;;;;20.38;14.77;;;18.50;99.50;;;;;;5039606;28;20667;-36
2022/05/07 07:44:14;;;;;;;25.95;16.60;;;18.50;99.60;;;;;;5026206;28;20229;-37
2022/05/07 07:49:32;;;;;;;24.00;16.80;;;18.70;99.70;;;;;;5038401;28;20220;-35
2022/05/07 07:52:02;;;;;;;18.65;14.07;;;18.70;99.70;;;;;;5042797;28;20243;-36
2022/05/07 07:54:38;;;;;;;24.98;16.75;;;18.80;99.80;;;;;;5044517;28;20220;-35
2022/05/07 07:57:05;;;;;;;22.23;16.75;;;18.90;99.80;;;;;;5036158;28;20200;-36
2022/05/07 07:59:33;;;;;;;27.67;17.33;;;19.00;99.80;;;;;;5038207;28;20333;-37
2022/05/07 08:02:00;;;;;;;25.92;18.35;;;19.00;99.80;;;;;;5036871;28;20674;-38
2022/05/07 08:04:29;;;;;;;32.28;18.85;;;19.00;99.80;;;;;;5035581;28;20269;-38
2022/05/07 08:12:30;;;;;;;28.25;17.60;;;19.20;99.80;;;;;;4991261;28;1101000;-34
2022/05/07 08:14:58;;;;;;;26.45;17.00;;;19.20;99.90;;;;;;5030313;28;20209;-38
2022/05/07 08:17:25;;;;;;;30.95;19.40;;;19.30;99.90;;;;;;5028908;28;20200;-36
2022/05/07 08:19:52;;;;;;;23.60;16.80;;;19.30;99.90;;;;;;5029069;28;20221;-35
2022/05/07 08:22:19;;;;;;;27.83;17.45;;;19.30;99.90;;;;;;5031622;28;20583;-36
2022/05/07 08:24:46;;;;;;;30.25;18.27;;;19.40;99.90;;;;;;5042249;28;20230;-35
2022/05/07 08:27:14;;;;;;;29.00;18.58;;;19.40;99.90;;;;;;5033343;28;20679;-35
2022/05/07 08:29:41;;;;;;;26.38;17.40;;;19.50;99.90;;;;;;5029169;28;20252;-36
2022/05/07 08:32:08;;;;;;;24.08;17.30;;;19.50;99.90;;;;;;5041044;28;20586;-35
2022/05/07 08:34:37;;;;;;;26.65;17.58;;;19.50;99.90;;;;;;5040866;28;20203;-35
2022/05/07 08:37:04;;;;;;;23.65;17.73;;;19.60;99.90;;;;;;5031707;28;20225;-37
2022/05/07 08:39:31;;;;;;;26.05;18.20;;;19.70;99.90;;;;;;5030815;28;20581;-38
2022/05/07 08:41:59;;;;;;;26.00;18.50;;;19.70;99.90;;;;;;5032995;28;20205;-36
2022/05/07 08:44:30;;;;;;;32.40;18.08;;;19.80;99.90;;;;;;5030025;28;20582;-36
2022/05/07 08:46:57;;;;;;;26.25;17.92;;;19.90;99.90;;;;;;5031869;28;20585;-37
2022/05/07 08:49:29;;;;;;;29.05;17.27;;;19.90;99.90;;;;;;5040479;28;20752;-37
2022/05/07 08:51:57;;;;;;;25.23;16.67;;;20.00;99.90;;;;;;5050665;28;20197;-37
2022/05/07 08:54:25;;;;;;;24.77;17.40;;;20.00;99.90;;;;;;5051495;28;20213;-36
2022/05/07 08:56:52;;;;;;;23.42;16.98;;;20.00;99.90;;;;;;5048099;28;20200;-35
2022/05/07 08:59:19;;;;;;;26.48;17.58;;;20.10;99.90;;;;;;5030356;28;20232;-38
2022/05/07 09:01:47;;;;;;;27.35;17.55;;;20.10;99.90;;;;;;5040684;28;20231;-36
2022/05/07 09:04:14;;;;;;;24.80;15.98;;;20.20;99.90;;;;;;5028985;28;20236;-35
2022/05/07 09:06:41;;;;;;;25.02;17.13;;;20.20;99.90;;;;;;5029634;28;20705;-38
2022/05/07 09:09:08;;;;;;;21.67;14.10;;;20.30;99.90;;;;;;5047034;28;20216;-36
2022/05/07 09:11:43;;;;;;;26.92;16.92;;;20.30;99.90;;;;;;5048942;28;20569;-37
2022/05/07 09:14:11;;;;;;;24.10;16.08;;;20.40;99.90;;;;;;5032055;28;20299;-37
2022/05/07 09:16:40;;;;;;;24.23;16.30;;;20.50;99.90;;;;;;5037378;28;20286;-35
2022/05/07 09:19:22;;;;;;;22.35;14.95;;;20.60;99.90;;;;;;5028180;28;20201;-38
2022/05/07 09:21:50;;;;;;;26.52;15.63;;;20.60;99.90;;;;;;5045562;28;20707;-38
2022/05/07 09:24:17;;;;;;;27.98;16.05;;;20.70;99.90;;;;;;5044818;28;20216;-36
2022/05/07 09:26:45;;;;;;;22.85;16.77;;;20.70;99.90;;;;;;5048721;28;20419;-37
2022/05/07 09:29:14;;;;;;;23.77;16.75;;;20.70;99.90;;;;;;5047171;28;20311;-40
2022/05/07 09:31:43;;;;;;;24.38;15.25;;;20.80;99.90;;;;;;5046216;28;20200;-41
2022/05/07 09:37:13;;;;;;;22.38;16.05;;;20.80;99.90;;;;;;5029395;28;20204;-40
2022/05/07 09:39:53;;;;;;;21.90;14.60;;;20.80;99.90;;;;;;5028164;28;20303;-40
2022/05/07 09:42:22;;;;;;;22.23;15.38;;;20.80;99.90;;;;;;5044894;28;20200;-40
2022/05/07 09:44:50;;;;;;;20.45;14.80;;;20.80;99.90;;;;;;5048100;28;20713;-40
2022/05/07 09:47:17;;;;;;;18.17;14.27;;;20.80;99.90;;;;;;5042626;28;20204;-36
2022/05/07 09:52:33;;;;;;;20.95;14.63;;;20.80;99.90;;;;;;5028884;28;20197;-36
2022/05/07 09:57:48;;;;;;;19.65;13.55;;;20.80;99.90;;;;;;5041088;28;20213;-35
2022/05/07 10:00:19;;;;;;;21.75;14.82;;;20.80;99.90;;;;;;5028075;28;20239;-35
2022/05/07 10:02:52;;;;;;;19.95;14.40;;;20.80;99.90;;;;;;5026237;28;20274;-36
2022/05/07 10:05:48;;;;;;;24.52;16.20;;;20.90;99.90;;;;;;5027507;28;20886;-35
2022/05/07 10:08:32;;;;;;;20.02;13.85;;;20.90;99.90;;;;;;5037899;28;20250;-33
2022/05/07 10:11:04;;;;;;;22.15;14.85;;;20.90;99.90;;;;;;5034717;28;20249;-34
2022/05/07 10:13:32;;;;;;;19.20;14.07;;;20.90;99.90;;;;;;5027819;28;20300;-35
2022/05/07 10:16:03;;;;;;;17.73;13.20;;;21.00;99.90;;;;;;5027397;28;20718;-36
2022/05/07 10:18:38;;;;;;;20.85;14.73;;;21.00;99.90;;;;;;5044571;28;20200;-36
2022/05/07 10:21:14;;;;;;;21.60;14.95;;;21.10;99.90;;;;;;5043558;28;20207;-37
2022/05/07 10:23:59;;;;;;;22.15;14.52;;;21.20;99.90;;;;;;5044164;28;21315;-35
2022/05/07 10:26:41;;;;;;;26.20;16.00;;;21.20;99.90;;;;;;5030134;28;20622;-36
2022/05/07 10:29:26;;;;;;;20.40;15.23;;;21.30;99.90;;;;;;5040802;28;20223;-35
2022/05/07 10:32:03;;;;;;;20.42;13.80;;;21.30;99.90;;;;;;5031468;28;20219;-37
2022/05/07 10:34:31;;;;;;;20.63;14.02;;;21.40;99.90;;;;;;5026634;28;20864;-35
2022/05/07 10:37:07;;;;;;;19.42;13.88;;;21.40;99.90;;;;;;5039531;28;20686;-36
2022/05/07 10:39:36;;;;;;;23.40;15.75;;;21.50;99.90;;;;;;5041569;28;20215;-36
2022/05/07 10:42:16;;;;;;;23.60;16.13;;;21.50;99.90;;;;;;5045459;28;20608;-36
2022/05/07 10:44:43;;;;;;;22.52;15.32;;;21.60;99.90;;;;;;5045443;28;20685;-36
2022/05/07 10:47:16;;;;;;;24.20;15.38;;;21.60;99.90;;;;;;5045925;28;20215;-37
2022/05/07 10:49:54;;;;;;;22.30;15.38;;;21.60;99.90;;;;;;5042559;28;20212;-36
2022/05/07 10:52:33;;;;;;;23.83;14.88;;;21.60;99.90;;;;;;5047545;28;20196;-35
2022/05/07 10:55:12;;;;;;;19.80;13.98;;;21.60;99.90;;;;;;5030859;28;20200;-37
2022/05/07 10:57:46;;;;;;;24.77;14.93;;;21.60;99.90;;;;;;5030414;28;20204;-36
2022/05/07 11:00:23;;;;;;;17.92;12.85;;;21.60;99.90;;;;;;5032496;28;20353;-36
2022/05/07 11:02:56;;;;;;;20.98;13.55;;;21.60;99.90;;;;;;5043879;28;20631;-35
2022/05/07 11:05:34;;;;;;;23.23;14.77;;;21.60;99.90;;;;;;5029965;28;20236;-35
2022/05/07 11:08:03;;;;;;;23.70;15.75;;;21.60;99.90;;;;;;5034058;28;20204;-35
2022/05/07 11:10:31;;;;;;;23.02;14.98;;;21.60;99.80;;;;;;5047093;28;20228;-37
2022/05/07 11:13:20;;;;;;;19.83;13.48;;;21.60;99.90;;;;;;5046082;28;20674;-38
2022/05/07 11:15:50;;;;;;;23.08;14.38;;;21.60;99.90;;;;;;5034305;28;20197;-36
2022/05/07 11:18:17;;;;;;;20.48;14.38;;;21.60;99.90;;;;;;5026873;28;20209;-37
2022/05/07 11:20:47;;;;;;;20.80;14.43;;;21.60;99.90;;;;;;5026798;28;20208;-38
2022/05/07 11:23:17;;;;;;;20.50;14.77;;;21.60;99.90;;;;;;5031106;28;20224;-38
2022/05/07 11:25:49;;;;;;;19.25;13.98;;;21.60;99.90;;;;;;5026705;28;20766;-36
2022/05/07 11:28:19;;;;;;;22.45;15.38;;;21.70;99.80;;;;;;5026954;28;20978;-36
2022/05/07 11:30:57;;;;;;;24.23;17.15;;;21.70;99.80;;;;;;5037545;28;20228;-36
2022/05/07 11:33:25;;;;;;;23.63;16.25;;;21.80;99.60;;;;;;5033982;28;20227;-35
2022/05/07 11:36:06;;;;;;;21.80;15.73;;;21.80;99.60;;;;;;5038222;28;20228;-36
2022/05/07 11:38:37;;;;;;;25.63;15.88;;;21.80;99.60;;;;;;5050703;28;20682;-37
2022/05/07 11:41:14;;;;;;;26.23;15.88;;;21.80;99.80;;;;;;5043973;28;20211;-37
2022/05/07 11:46:56;;;;;;;23.55;15.85;;;21.80;99.60;;;;;;5041585;28;20204;-37
2022/05/07 11:49:41;;;;;;;19.20;14.40;;;21.90;99.60;;;;;;5034393;28;20315;-37
2022/05/07 11:52:12;;;;;;;20.85;14.52;;;21.90;99.60;;;;;;5043199;28;20579;-35
2022/05/07 11:54:54;;;;;;;17.17;13.32;;;21.90;99.60;;;;;;5036529;28;20287;-38
2022/05/07 11:57:35;;;;;;;17.08;13.15;;;21.90;99.60;;;;;;5035154;28;20211;-36
2022/05/07 12:00:39;;;;;;;18.15;12.43;;;21.90;99.70;;;;;;5041777;28;20294;-37
2022/05/07 12:03:09;;;;;;;16.70;12.75;;;21.90;99.80;;;;;;5028353;28;20299;-39
2022/05/07 12:05:41;;;;;;;17.52;13.07;;;21.90;99.80;;;;;;5033365;28;20200;-39
2022/05/07 12:08:17;;;;;;;17.63;12.48;;;21.90;99.80;;;;;;5034242;28;20718;-39
2022/05/07 12:10:45;;;;;;;18.95;14.55;;;22.00;99.70;;;;;;5035522;28;20236;-39
2022/05/07 12:13:18;;;;;;;20.55;15.48;;;22.00;99.00;;;;;;5029381;28;20210;-39
2022/05/07 12:18:36;;;;;;;16.23;11.95;;;22.10;99.60;;;;;;5040170;28;20303;-39
2022/05/07 12:21:03;;;;;;;19.45;13.98;;;22.20;99.60;;;;;;5040514;28;20546;-36
2022/05/07 12:31:52;;;;;;;13.48;12.07;;;22.40;99.50;;;;;;5040838;28;20200;-39
2022/05/07 12:34:21;;;;;;;16.70;11.32;;;22.50;98.80;;;;;;5042350;28;20207;-37
2022/05/07 12:36:49;;;;;;;12.60;10.60;;;22.60;98.50;;;;;;5047697;28;20222;-40
2022/05/07 12:39:16;;;;;;;13.82;10.38;;;22.50;98.80;;;;;;5043125;28;20280;-40
2022/05/07 12:41:44;;;;;;;16.38;8.60;;;22.50;98.60;;;;;;5042255;28;20215;-39
2022/05/07 12:44:14;;;;;;;10.27;8.20;;;22.50;98.60;;;;;;5028972;28;20236;-38
2022/05/07 12:46:41;;;;;;;13.05;9.05;;;22.50;98.80;;;;;;5036119;28;20312;-38
2022/05/07 12:49:08;;;;;;;11.73;9.30;;;22.50;98.80;;;;;;5029127;28;20192;-37
2022/05/07 12:51:36;;;;;;;13.75;8.68;;;22.50;98.60;;;;;;5037579;28;20720;-37
2022/05/07 12:54:04;;;;;;;10.73;8.32;;;22.60;98.80;;;;;;5032263;28;20209;-37
2022/05/07 12:56:31;;;;;;;11.95;9.50;;;22.60;98.60;;;;;;5030371;28;20204;-37
2022/05/07 12:59:01;;;;;;;11.15;8.02;;;22.70;98.70;;;;;;5042329;28;20203;-37
2022/05/07 13:01:28;;;;;;;10.50;8.13;;;22.70;98.70;;;;;;5047096;28;20196;-37
2022/05/07 13:03:55;;;;;;;11.95;8.05;;;22.70;99.00;;;;;;5047163;28;20220;-37
2022/05/07 13:06:22;;;;;;;9.63;7.95;;;22.70;98.70;;;;;;5039069;28;20212;-38
2022/05/07 13:08:52;;;;;;;11.05;7.80;;;22.70;98.90;;;;;;5040489;28;20258;-39
2022/05/07 13:11:19;;;;;;;9.32;7.22;;;22.70;98.50;;;;;;5042812;28;20244;-39
2022/05/07 13:13:46;;;;;;;7.32;6.10;;;22.60;98.30;;;;;;5038198;28;20460;-39
2022/05/07 13:16:14;;;;;;;9.85;6.82;;;22.60;98.60;;;;;;5052948;28;20202;-39
2022/05/07 13:18:41;;;;;;;11.23;6.28;;;22.50;98.20;;;;;;5032131;28;20201;-38
2022/05/07 13:21:08;;;;;;;9.30;5.30;;;22.50;98.50;;;;;;5035340;28;20224;-39
2022/05/07 13:23:36;;;;;;;8.27;6.47;;;22.50;98.90;;;;;;5046870;28;21006;-39
2022/05/07 13:26:04;;;;;;;11.85;8.75;;;22.50;98.80;;;;;;5036393;28;20989;-39
2022/05/07 13:28:31;;;;;;;9.05;7.18;;;22.60;98.80;;;;;;5030773;28;20220;-40